sensor_id;sensor_type;location;lat;lon;timestamp;P1;durP1;ratioP1;P2;durP2;ratioP2
47519;SDS011;33252;48.122;11.538;2024-02-26T00:00:33;6.13;;;3.03;;
47519;SDS011;33252;48.122;11.538;2024-02-26T00:03:00;5.40;;;2.97;;
47519;SDS011;33252;48.122;11.538;2024-02-26T00:05:25;3.97;;;2.60;;
47519;SDS011;33252;48.122;11.538;2024-02-26T00:07:51;4.28;;;2.55;;
47519;SDS011;33252;48.122;11.538;2024-02-26T00:10:17;3.00;;;2.28;;
47519;SDS011;33252;48.122;11.538;2024-02-26T00:12:42;6.18;;;2.28;;
47519;SDS011;33252;48.122;11.538;2024-02-26T00:15:08;2.60;;;1.95;;
47519;SDS011;33252;48.122;11.538;2024-02-26T00:17:34;3.38;;;2.10;;
47519;SDS011;33252;48.122;11.538;2024-02-26T00:20:01;2.85;;;2.17;;
47519;SDS011;33252;48.122;11.538;2024-02-26T00:22:33;5.53;;;2.58;;
47519;SDS011;33252;48.122;11.538;2024-02-26T00:24:58;3.78;;;2.50;;
47519;SDS011;33252;48.122;11.538;2024-02-26T00:27:24;2.67;;;2.00;;
47519;SDS011;33252;48.122;11.538;2024-02-26T00:29:49;2.83;;;1.85;;
47519;SDS011;33252;48.122;11.538;2024-02-26T00:32:15;2.25;;;1.63;;
47519;SDS011;33252;48.122;11.538;2024-02-26T00:34:40;3.25;;;1.88;;
47519;SDS011;33252;48.122;11.538;2024-02-26T00:37:06;3.90;;;1.90;;
47519;SDS011;33252;48.122;11.538;2024-02-26T00:39:32;4.40;;;2.15;;
47519;SDS011;33252;48.122;11.538;2024-02-26T00:41:57;1.98;;;1.60;;
47519;SDS011;33252;48.122;11.538;2024-02-26T00:44:23;2.80;;;1.92;;
47519;SDS011;33252;48.122;11.538;2024-02-26T00:46:48;4.90;;;2.13;;
47519;SDS011;33252;48.122;11.538;2024-02-26T00:49:14;4.97;;;2.15;;
47519;SDS011;33252;48.122;11.538;2024-02-26T00:51:39;3.67;;;1.90;;
47519;SDS011;33252;48.122;11.538;2024-02-26T00:54:07;3.55;;;2.05;;
47519;SDS011;33252;48.122;11.538;2024-02-26T00:56:33;2.50;;;1.67;;
47519;SDS011;33252;48.122;11.538;2024-02-26T00:58:58;3.00;;;1.90;;
47519;SDS011;33252;48.122;11.538;2024-02-26T01:01:24;4.35;;;2.17;;
47519;SDS011;33252;48.122;11.538;2024-02-26T01:03:49;3.55;;;2.50;;
47519;SDS011;33252;48.122;11.538;2024-02-26T01:06:15;3.35;;;1.77;;
47519;SDS011;33252;48.122;11.538;2024-02-26T01:08:41;6.22;;;2.28;;
47519;SDS011;33252;48.122;11.538;2024-02-26T01:11:06;3.28;;;1.92;;
47519;SDS011;33252;48.122;11.538;2024-02-26T01:13:32;2.50;;;1.60;;
47519;SDS011;33252;48.122;11.538;2024-02-26T01:15:58;3.42;;;1.95;;
47519;SDS011;33252;48.122;11.538;2024-02-26T01:18:25;2.67;;;1.75;;
47519;SDS011;33252;48.122;11.538;2024-02-26T01:20:51;3.30;;;2.08;;
47519;SDS011;33252;48.122;11.538;2024-02-26T01:23:18;3.92;;;2.03;;
47519;SDS011;33252;48.122;11.538;2024-02-26T01:25:43;5.25;;;2.10;;
47519;SDS011;33252;48.122;11.538;2024-02-26T01:28:09;2.47;;;2.10;;
47519;SDS011;33252;48.122;11.538;2024-02-26T01:30:34;3.75;;;2.08;;
47519;SDS011;33252;48.122;11.538;2024-02-26T01:33:00;2.40;;;1.60;;
47519;SDS011;33252;48.122;11.538;2024-02-26T01:35:25;2.63;;;1.90;;
47519;SDS011;33252;48.122;11.538;2024-02-26T01:37:51;2.70;;;1.70;;
47519;SDS011;33252;48.122;11.538;2024-02-26T01:40:17;3.08;;;1.80;;
47519;SDS011;33252;48.122;11.538;2024-02-26T01:42:43;2.65;;;1.45;;
47519;SDS011;33252;48.122;11.538;2024-02-26T01:45:11;3.72;;;1.52;;
47519;SDS011;33252;48.122;11.538;2024-02-26T01:47:41;4.82;;;1.38;;
47519;SDS011;33252;48.122;11.538;2024-02-26T01:50:06;3.75;;;2.13;;
47519;SDS011;33252;48.122;11.538;2024-02-26T01:52:33;3.38;;;1.73;;
47519;SDS011;33252;48.122;11.538;2024-02-26T01:54:59;4.32;;;1.92;;
47519;SDS011;33252;48.122;11.538;2024-02-26T01:57:26;4.45;;;1.65;;
47519;SDS011;33252;48.122;11.538;2024-02-26T01:59:52;1.75;;;1.00;;
47519;SDS011;33252;48.122;11.538;2024-02-26T02:02:18;3.03;;;1.48;;
47519;SDS011;33252;48.122;11.538;2024-02-26T02:04:44;2.15;;;1.38;;
47519;SDS011;33252;48.122;11.538;2024-02-26T02:07:09;3.95;;;1.42;;
47519;SDS011;33252;48.122;11.538;2024-02-26T02:09:35;3.55;;;1.52;;
47519;SDS011;33252;48.122;11.538;2024-02-26T02:12:01;2.92;;;1.67;;
47519;SDS011;33252;48.122;11.538;2024-02-26T02:14:27;3.05;;;1.88;;
47519;SDS011;33252;48.122;11.538;2024-02-26T02:16:53;3.53;;;1.90;;
47519;SDS011;33252;48.122;11.538;2024-02-26T02:19:18;3.28;;;1.60;;
47519;SDS011;33252;48.122;11.538;2024-02-26T02:21:44;2.92;;;1.83;;
47519;SDS011;33252;48.122;11.538;2024-02-26T02:24:09;5.93;;;2.30;;
47519;SDS011;33252;48.122;11.538;2024-02-26T02:26:35;3.25;;;2.05;;
47519;SDS011;33252;48.122;11.538;2024-02-26T02:29:00;3.72;;;2.13;;
47519;SDS011;33252;48.122;11.538;2024-02-26T02:31:27;3.17;;;1.48;;
47519;SDS011;33252;48.122;11.538;2024-02-26T02:33:52;3.00;;;1.63;;
47519;SDS011;33252;48.122;11.538;2024-02-26T02:36:18;3.58;;;1.65;;
47519;SDS011;33252;48.122;11.538;2024-02-26T02:38:50;5.25;;;2.22;;
47519;SDS011;33252;48.122;11.538;2024-02-26T02:41:17;2.33;;;1.40;;
47519;SDS011;33252;48.122;11.538;2024-02-26T02:43:42;4.75;;;1.95;;
47519;SDS011;33252;48.122;11.538;2024-02-26T02:46:08;3.80;;;1.45;;
47519;SDS011;33252;48.122;11.538;2024-02-26T02:48:33;2.20;;;1.15;;
47519;SDS011;33252;48.122;11.538;2024-02-26T02:50:59;3.47;;;1.63;;
47519;SDS011;33252;48.122;11.538;2024-02-26T02:53:24;2.28;;;1.38;;
47519;SDS011;33252;48.122;11.538;2024-02-26T02:55:50;4.85;;;1.52;;
47519;SDS011;33252;48.122;11.538;2024-02-26T02:58:15;2.58;;;1.00;;
47519;SDS011;33252;48.122;11.538;2024-02-26T03:00:41;2.83;;;1.52;;
47519;SDS011;33252;48.122;11.538;2024-02-26T03:03:06;3.60;;;1.58;;
47519;SDS011;33252;48.122;11.538;2024-02-26T03:05:32;2.47;;;1.08;;
47519;SDS011;33252;48.122;11.538;2024-02-26T03:07:57;2.72;;;1.40;;
47519;SDS011;33252;48.122;11.538;2024-02-26T03:10:23;2.15;;;1.15;;
47519;SDS011;33252;48.122;11.538;2024-02-26T03:12:49;2.00;;;1.13;;
47519;SDS011;33252;48.122;11.538;2024-02-26T03:15:15;1.65;;;1.10;;
47519;SDS011;33252;48.122;11.538;2024-02-26T03:17:40;2.13;;;1.30;;
47519;SDS011;33252;48.122;11.538;2024-02-26T03:20:06;1.77;;;1.20;;
47519;SDS011;33252;48.122;11.538;2024-02-26T03:22:33;2.65;;;1.45;;
47519;SDS011;33252;48.122;11.538;2024-02-26T03:24:59;3.05;;;1.73;;
47519;SDS011;33252;48.122;11.538;2024-02-26T03:27:24;2.58;;;1.33;;
47519;SDS011;33252;48.122;11.538;2024-02-26T03:29:50;3.13;;;1.70;;
47519;SDS011;33252;48.122;11.538;2024-02-26T03:32:16;2.42;;;1.08;;
47519;SDS011;33252;48.122;11.538;2024-02-26T03:34:41;2.67;;;1.45;;
47519;SDS011;33252;48.122;11.538;2024-02-26T03:37:07;2.60;;;1.35;;
47519;SDS011;33252;48.122;11.538;2024-02-26T03:39:35;3.70;;;1.67;;
47519;SDS011;33252;48.122;11.538;2024-02-26T03:42:00;2.40;;;1.40;;
47519;SDS011;33252;48.122;11.538;2024-02-26T03:44:27;2.60;;;1.10;;
47519;SDS011;33252;48.122;11.538;2024-02-26T03:46:52;2.03;;;1.10;;
47519;SDS011;33252;48.122;11.538;2024-02-26T03:49:18;2.50;;;1.20;;
47519;SDS011;33252;48.122;11.538;2024-02-26T03:51:44;2.22;;;1.10;;
47519;SDS011;33252;48.122;11.538;2024-02-26T03:54:09;4.32;;;1.25;;
47519;SDS011;33252;48.122;11.538;2024-02-26T03:56:35;1.95;;;1.10;;
47519;SDS011;33252;48.122;11.538;2024-02-26T03:59:00;4.88;;;1.25;;
47519;SDS011;33252;48.122;11.538;2024-02-26T04:01:27;2.15;;;1.30;;
47519;SDS011;33252;48.122;11.538;2024-02-26T04:03:53;1.35;;;0.95;;
47519;SDS011;33252;48.122;11.538;2024-02-26T04:06:19;2.78;;;0.98;;
47519;SDS011;33252;48.122;11.538;2024-02-26T04:08:46;4.65;;;1.10;;
47519;SDS011;33252;48.122;11.538;2024-02-26T04:11:12;2.88;;;1.10;;
47519;SDS011;33252;48.122;11.538;2024-02-26T04:13:38;1.85;;;1.10;;
47519;SDS011;33252;48.122;11.538;2024-02-26T04:16:04;2.75;;;1.10;;
47519;SDS011;33252;48.122;11.538;2024-02-26T04:18:30;3.50;;;1.10;;
47519;SDS011;33252;48.122;11.538;2024-02-26T04:20:56;1.27;;;1.02;;
47519;SDS011;33252;48.122;11.538;2024-02-26T04:23:22;2.80;;;1.23;;
47519;SDS011;33252;48.122;11.538;2024-02-26T04:25:48;1.83;;;0.90;;
47519;SDS011;33252;48.122;11.538;2024-02-26T04:28:13;1.70;;;1.00;;
47519;SDS011;33252;48.122;11.538;2024-02-26T04:30:39;2.25;;;1.42;;
47519;SDS011;33252;48.122;11.538;2024-02-26T04:33:05;1.67;;;1.20;;
47519;SDS011;33252;48.122;11.538;2024-02-26T04:35:30;3.35;;;1.20;;
47519;SDS011;33252;48.122;11.538;2024-02-26T04:37:56;1.90;;;1.00;;
47519;SDS011;33252;48.122;11.538;2024-02-26T04:40:22;1.45;;;0.85;;
47519;SDS011;33252;48.122;11.538;2024-02-26T04:42:47;2.60;;;1.13;;
47519;SDS011;33252;48.122;11.538;2024-02-26T04:45:13;2.47;;;1.85;;
47519;SDS011;33252;48.122;11.538;2024-02-26T04:47:38;1.33;;;0.77;;
47519;SDS011;33252;48.122;11.538;2024-02-26T04:50:04;2.92;;;1.23;;
47519;SDS011;33252;48.122;11.538;2024-02-26T04:52:30;1.67;;;1.05;;
47519;SDS011;33252;48.122;11.538;2024-02-26T04:54:55;1.15;;;0.77;;
47519;SDS011;33252;48.122;11.538;2024-02-26T04:57:21;3.13;;;1.00;;
47519;SDS011;33252;48.122;11.538;2024-02-26T04:59:47;1.70;;;1.10;;
47519;SDS011;33252;48.122;11.538;2024-02-26T05:02:13;3.20;;;1.48;;
47519;SDS011;33252;48.122;11.538;2024-02-26T05:04:38;1.20;;;0.88;;
47519;SDS011;33252;48.122;11.538;2024-02-26T05:07:04;1.42;;;0.80;;
47519;SDS011;33252;48.122;11.538;2024-02-26T05:09:30;2.45;;;0.90;;
47519;SDS011;33252;48.122;11.538;2024-02-26T05:11:55;3.78;;;1.23;;
47519;SDS011;33252;48.122;11.538;2024-02-26T05:14:21;1.90;;;0.80;;
47519;SDS011;33252;48.122;11.538;2024-02-26T05:16:46;1.95;;;0.90;;
47519;SDS011;33252;48.122;11.538;2024-02-26T05:19:12;3.78;;;1.08;;
47519;SDS011;33252;48.122;11.538;2024-02-26T05:21:38;1.10;;;0.93;;
47519;SDS011;33252;48.122;11.538;2024-02-26T05:24:04;0.80;;;0.43;;
47519;SDS011;33252;48.122;11.538;2024-02-26T05:26:31;0.95;;;0.45;;
47519;SDS011;33252;48.122;11.538;2024-02-26T05:28:56;2.25;;;0.70;;
47519;SDS011;33252;48.122;11.538;2024-02-26T05:31:24;1.23;;;0.50;;
47519;SDS011;33252;48.122;11.538;2024-02-26T05:33:51;1.30;;;0.68;;
47519;SDS011;33252;48.122;11.538;2024-02-26T05:36:22;0.90;;;0.60;;
47519;SDS011;33252;48.122;11.538;2024-02-26T05:38:48;2.33;;;0.70;;
47519;SDS011;33252;48.122;11.538;2024-02-26T05:41:17;1.40;;;0.75;;
47519;SDS011;33252;48.122;11.538;2024-02-26T05:43:51;1.80;;;0.70;;
47519;SDS011;33252;48.122;11.538;2024-02-26T05:46:20;0.75;;;0.43;;
47519;SDS011;33252;48.122;11.538;2024-02-26T05:48:50;2.97;;;0.77;;
47519;SDS011;33252;48.122;11.538;2024-02-26T05:51:17;2.80;;;0.70;;
47519;SDS011;33252;48.122;11.538;2024-02-26T05:53:43;1.65;;;0.88;;
47519;SDS011;33252;48.122;11.538;2024-02-26T05:56:08;1.70;;;0.73;;
47519;SDS011;33252;48.122;11.538;2024-02-26T05:58:34;0.65;;;0.50;;
47519;SDS011;33252;48.122;11.538;2024-02-26T06:00:59;1.05;;;0.50;;
47519;SDS011;33252;48.122;11.538;2024-02-26T06:03:25;2.97;;;0.57;;
47519;SDS011;33252;48.122;11.538;2024-02-26T06:05:51;1.80;;;0.88;;
47519;SDS011;33252;48.122;11.538;2024-02-26T06:08:17;1.02;;;0.63;;
47519;SDS011;33252;48.122;11.538;2024-02-26T06:10:42;1.48;;;0.63;;
47519;SDS011;33252;48.122;11.538;2024-02-26T06:13:08;1.42;;;0.77;;
47519;SDS011;33252;48.122;11.538;2024-02-26T06:15:34;4.07;;;0.90;;
47519;SDS011;33252;48.122;11.538;2024-02-26T06:17:59;1.05;;;0.70;;
47519;SDS011;33252;48.122;11.538;2024-02-26T06:20:25;0.93;;;0.60;;
47519;SDS011;33252;48.122;11.538;2024-02-26T06:22:51;4.18;;;0.82;;
47519;SDS011;33252;48.122;11.538;2024-02-26T06:25:16;1.88;;;0.88;;
47519;SDS011;33252;48.122;11.538;2024-02-26T06:27:42;1.23;;;0.70;;
47519;SDS011;33252;48.122;11.538;2024-02-26T06:30:07;1.40;;;0.68;;
47519;SDS011;33252;48.122;11.538;2024-02-26T06:32:35;4.82;;;0.75;;
47519;SDS011;33252;48.122;11.538;2024-02-26T06:35:01;1.95;;;0.65;;
47519;SDS011;33252;48.122;11.538;2024-02-26T06:37:31;2.20;;;0.68;;
47519;SDS011;33252;48.122;11.538;2024-02-26T06:39:58;4.22;;;1.27;;
47519;SDS011;33252;48.122;11.538;2024-02-26T06:42:24;2.38;;;0.73;;
47519;SDS011;33252;48.122;11.538;2024-02-26T06:44:49;1.33;;;0.70;;
47519;SDS011;33252;48.122;11.538;2024-02-26T06:47:15;1.30;;;0.65;;
47519;SDS011;33252;48.122;11.538;2024-02-26T06:49:40;1.48;;;0.60;;
47519;SDS011;33252;48.122;11.538;2024-02-26T06:52:06;1.60;;;0.85;;
47519;SDS011;33252;48.122;11.538;2024-02-26T06:54:32;2.25;;;1.05;;
47519;SDS011;33252;48.122;11.538;2024-02-26T06:56:57;1.55;;;0.80;;
47519;SDS011;33252;48.122;11.538;2024-02-26T06:59:23;1.42;;;1.33;;
47519;SDS011;33252;48.122;11.538;2024-02-26T07:01:49;4.32;;;1.08;;
47519;SDS011;33252;48.122;11.538;2024-02-26T07:04:14;3.50;;;1.20;;
47519;SDS011;33252;48.122;11.538;2024-02-26T07:06:40;2.17;;;0.70;;
47519;SDS011;33252;48.122;11.538;2024-02-26T07:09:06;1.90;;;1.08;;
47519;SDS011;33252;48.122;11.538;2024-02-26T07:11:32;2.25;;;1.00;;
47519;SDS011;33252;48.122;11.538;2024-02-26T07:13:57;4.03;;;1.23;;
47519;SDS011;33252;48.122;11.538;2024-02-26T07:16:23;4.45;;;1.10;;
47519;SDS011;33252;48.122;11.538;2024-02-26T07:18:49;5.70;;;1.20;;
47519;SDS011;33252;48.122;11.538;2024-02-26T07:21:14;4.18;;;1.30;;
47519;SDS011;33252;48.122;11.538;2024-02-26T07:23:40;4.13;;;1.23;;
47519;SDS011;33252;48.122;11.538;2024-02-26T07:26:06;3.47;;;1.33;;
47519;SDS011;33252;48.122;11.538;2024-02-26T07:28:33;4.40;;;1.50;;
47519;SDS011;33252;48.122;11.538;2024-02-26T07:30:58;6.82;;;1.95;;
47519;SDS011;33252;48.122;11.538;2024-02-26T07:33:24;9.13;;;2.33;;
47519;SDS011;33252;48.122;11.538;2024-02-26T07:35:50;5.60;;;1.83;;
47519;SDS011;33252;48.122;11.538;2024-02-26T07:38:15;5.18;;;1.92;;
47519;SDS011;33252;48.122;11.538;2024-02-26T07:40:41;7.70;;;1.98;;
47519;SDS011;33252;48.122;11.538;2024-02-26T07:43:06;7.05;;;1.65;;
47519;SDS011;33252;48.122;11.538;2024-02-26T07:45:32;4.93;;;1.52;;
47519;SDS011;33252;48.122;11.538;2024-02-26T07:47:58;4.95;;;1.40;;
47519;SDS011;33252;48.122;11.538;2024-02-26T07:50:23;3.78;;;1.50;;
47519;SDS011;33252;48.122;11.538;2024-02-26T07:52:49;5.95;;;2.08;;
47519;SDS011;33252;48.122;11.538;2024-02-26T07:55:16;7.03;;;2.60;;
47519;SDS011;33252;48.122;11.538;2024-02-26T07:57:42;4.82;;;2.03;;
47519;SDS011;33252;48.122;11.538;2024-02-26T08:00:10;5.45;;;1.85;;
47519;SDS011;33252;48.122;11.538;2024-02-26T08:02:36;7.95;;;2.30;;
47519;SDS011;33252;48.122;11.538;2024-02-26T08:05:01;4.05;;;1.90;;
47519;SDS011;33252;48.122;11.538;2024-02-26T08:07:27;8.20;;;2.55;;
47519;SDS011;33252;48.122;11.538;2024-02-26T08:09:53;5.57;;;2.67;;
47519;SDS011;33252;48.122;11.538;2024-02-26T08:12:19;11.88;;;2.50;;
47519;SDS011;33252;48.122;11.538;2024-02-26T08:14:44;3.75;;;1.73;;
47519;SDS011;33252;48.122;11.538;2024-02-26T08:17:10;3.60;;;1.70;;
47519;SDS011;33252;48.122;11.538;2024-02-26T08:19:35;6.13;;;2.40;;
47519;SDS011;33252;48.122;11.538;2024-02-26T08:22:01;6.90;;;1.88;;
47519;SDS011;33252;48.122;11.538;2024-02-26T08:24:27;5.28;;;2.00;;
47519;SDS011;33252;48.122;11.538;2024-02-26T08:26:53;4.85;;;1.60;;
47519;SDS011;33252;48.122;11.538;2024-02-26T08:29:19;4.82;;;1.58;;
47519;SDS011;33252;48.122;11.538;2024-02-26T08:31:45;3.58;;;1.30;;
47519;SDS011;33252;48.122;11.538;2024-02-26T08:34:10;9.93;;;1.80;;
47519;SDS011;33252;48.122;11.538;2024-02-26T08:36:36;3.40;;;1.10;;
47519;SDS011;33252;48.122;11.538;2024-02-26T08:39:01;5.70;;;1.75;;
47519;SDS011;33252;48.122;11.538;2024-02-26T08:41:27;5.65;;;2.22;;
47519;SDS011;33252;48.122;11.538;2024-02-26T08:43:53;3.78;;;1.63;;
47519;SDS011;33252;48.122;11.538;2024-02-26T08:46:19;3.40;;;2.10;;
47519;SDS011;33252;48.122;11.538;2024-02-26T08:48:45;4.90;;;2.08;;
47519;SDS011;33252;48.122;11.538;2024-02-26T08:51:11;7.25;;;1.90;;
47519;SDS011;33252;48.122;11.538;2024-02-26T08:53:36;8.38;;;2.53;;
47519;SDS011;33252;48.122;11.538;2024-02-26T08:56:02;10.05;;;2.30;;
47519;SDS011;33252;48.122;11.538;2024-02-26T08:58:28;3.60;;;2.38;;
47519;SDS011;33252;48.122;11.538;2024-02-26T09:00:54;4.88;;;1.85;;
47519;SDS011;33252;48.122;11.538;2024-02-26T09:03:20;7.10;;;1.95;;
47519;SDS011;33252;48.122;11.538;2024-02-26T09:05:45;4.55;;;1.77;;
47519;SDS011;33252;48.122;11.538;2024-02-26T09:08:11;14.63;;;2.60;;
47519;SDS011;33252;48.122;11.538;2024-02-26T09:10:37;6.03;;;2.08;;
47519;SDS011;33252;48.122;11.538;2024-02-26T09:13:03;9.07;;;4.70;;
47519;SDS011;33252;48.122;11.538;2024-02-26T09:15:29;6.70;;;3.40;;
47519;SDS011;33252;48.122;11.538;2024-02-26T09:17:55;7.32;;;3.03;;
47519;SDS011;33252;48.122;11.538;2024-02-26T09:20:20;5.53;;;3.75;;
47519;SDS011;33252;48.122;11.538;2024-02-26T09:22:48;7.45;;;4.47;;
47519;SDS011;33252;48.122;11.538;2024-02-26T09:25:14;6.43;;;2.05;;
47519;SDS011;33252;48.122;11.538;2024-02-26T09:27:41;4.13;;;2.03;;
47519;SDS011;33252;48.122;11.538;2024-02-26T09:30:08;4.57;;;1.50;;
47519;SDS011;33252;48.122;11.538;2024-02-26T09:32:37;3.42;;;1.67;;
47519;SDS011;33252;48.122;11.538;2024-02-26T09:35:03;8.35;;;2.10;;
47519;SDS011;33252;48.122;11.538;2024-02-26T09:37:29;9.35;;;3.08;;
47519;SDS011;33252;48.122;11.538;2024-02-26T09:39:55;14.23;;;3.28;;
47519;SDS011;33252;48.122;11.538;2024-02-26T09:42:20;7.75;;;2.90;;
47519;SDS011;33252;48.122;11.538;2024-02-26T09:44:49;12.50;;;2.63;;
47519;SDS011;33252;48.122;11.538;2024-02-26T09:47:18;3.30;;;2.00;;
47519;SDS011;33252;48.122;11.538;2024-02-26T09:49:45;3.63;;;1.77;;
47519;SDS011;33252;48.122;11.538;2024-02-26T09:52:12;4.68;;;2.30;;
47519;SDS011;33252;48.122;11.538;2024-02-26T09:54:40;3.65;;;1.17;;
47519;SDS011;33252;48.122;11.538;2024-02-26T09:57:07;2.75;;;1.30;;
47519;SDS011;33252;48.122;11.538;2024-02-26T09:59:40;3.75;;;1.38;;
47519;SDS011;33252;48.122;11.538;2024-02-26T10:02:13;6.07;;;1.60;;
47519;SDS011;33252;48.122;11.538;2024-02-26T10:04:39;7.03;;;1.67;;
47519;SDS011;33252;48.122;11.538;2024-02-26T10:07:10;4.57;;;1.42;;
47519;SDS011;33252;48.122;11.538;2024-02-26T10:09:37;4.97;;;1.50;;
47519;SDS011;33252;48.122;11.538;2024-02-26T10:12:07;4.90;;;1.65;;
47519;SDS011;33252;48.122;11.538;2024-02-26T10:17:02;3.25;;;1.30;;
47519;SDS011;33252;48.122;11.538;2024-02-26T10:19:28;2.83;;;1.58;;
47519;SDS011;33252;48.122;11.538;2024-02-26T10:21:57;2.17;;;1.20;;
47519;SDS011;33252;48.122;11.538;2024-02-26T10:24:24;3.75;;;1.65;;
47519;SDS011;33252;48.122;11.538;2024-02-26T10:26:50;5.63;;;1.08;;
47519;SDS011;33252;48.122;11.538;2024-02-26T10:29:21;4.55;;;1.45;;
47519;SDS011;33252;48.122;11.538;2024-02-26T10:31:53;2.42;;;1.00;;
47519;SDS011;33252;48.122;11.538;2024-02-26T10:34:19;1.52;;;0.93;;
47519;SDS011;33252;48.122;11.538;2024-02-26T10:36:45;2.30;;;1.02;;
47519;SDS011;33252;48.122;11.538;2024-02-26T10:39:14;5.13;;;1.80;;
47519;SDS011;33252;48.122;11.538;2024-02-26T10:41:43;2.90;;;1.10;;
47519;SDS011;33252;48.122;11.538;2024-02-26T10:44:10;2.03;;;0.93;;
47519;SDS011;33252;48.122;11.538;2024-02-26T10:46:37;4.00;;;1.30;;
47519;SDS011;33252;48.122;11.538;2024-02-26T10:49:04;2.70;;;0.82;;
47519;SDS011;33252;48.122;11.538;2024-02-26T10:51:31;2.38;;;0.80;;
47519;SDS011;33252;48.122;11.538;2024-02-26T10:54:01;2.45;;;0.82;;
47519;SDS011;33252;48.122;11.538;2024-02-26T10:56:33;1.73;;;0.75;;
47519;SDS011;33252;48.122;11.538;2024-02-26T10:58:59;1.63;;;0.60;;
47519;SDS011;33252;48.122;11.538;2024-02-26T11:01:26;1.20;;;0.65;;
47519;SDS011;33252;48.122;11.538;2024-02-26T11:03:54;2.65;;;0.88;;
47519;SDS011;33252;48.122;11.538;2024-02-26T11:06:24;1.70;;;0.70;;
47519;SDS011;33252;48.122;11.538;2024-02-26T11:08:51;2.67;;;0.93;;
47519;SDS011;33252;48.122;11.538;2024-02-26T11:11:18;2.42;;;0.88;;
47519;SDS011;33252;48.122;11.538;2024-02-26T11:13:46;1.77;;;0.70;;
47519;SDS011;33252;48.122;11.538;2024-02-26T11:16:18;3.42;;;0.85;;
47519;SDS011;33252;48.122;11.538;2024-02-26T11:18:48;3.35;;;0.82;;
47519;SDS011;33252;48.122;11.538;2024-02-26T11:21:17;1.80;;;0.80;;
47519;SDS011;33252;48.122;11.538;2024-02-26T11:23:52;1.65;;;0.80;;
47519;SDS011;33252;48.122;11.538;2024-02-26T11:26:19;1.45;;;0.75;;
47519;SDS011;33252;48.122;11.538;2024-02-26T11:28:46;1.48;;;0.38;;
47519;SDS011;33252;48.122;11.538;2024-02-26T11:31:13;3.22;;;0.55;;
47519;SDS011;33252;48.122;11.538;2024-02-26T11:33:39;1.65;;;0.63;;
47519;SDS011;33252;48.122;11.538;2024-02-26T11:36:08;1.75;;;0.55;;
47519;SDS011;33252;48.122;11.538;2024-02-26T11:38:35;0.68;;;0.30;;
47519;SDS011;33252;48.122;11.538;2024-02-26T11:41:01;6.28;;;1.77;;
47519;SDS011;33252;48.122;11.538;2024-02-26T11:46:26;2.42;;;0.30;;
47519;SDS011;33252;48.122;11.538;2024-02-26T11:49:00;0.90;;;0.35;;
47519;SDS011;33252;48.122;11.538;2024-02-26T11:51:28;1.00;;;0.40;;
47519;SDS011;33252;48.122;11.538;2024-02-26T11:53:57;1.23;;;0.38;;
47519;SDS011;33252;48.122;11.538;2024-02-26T11:56:23;0.60;;;0.30;;
47519;SDS011;33252;48.122;11.538;2024-02-26T11:59:04;0.90;;;0.30;;
47519;SDS011;33252;48.122;11.538;2024-02-26T12:04:19;0.65;;;0.35;;
47519;SDS011;33252;48.122;11.538;2024-02-26T12:06:52;0.95;;;0.40;;
47519;SDS011;33252;48.122;11.538;2024-02-26T12:09:30;0.73;;;0.35;;
47519;SDS011;33252;48.122;11.538;2024-02-26T12:11:57;1.05;;;0.40;;
47519;SDS011;33252;48.122;11.538;2024-02-26T12:14:25;0.35;;;0.20;;
47519;SDS011;33252;48.122;11.538;2024-02-26T12:16:51;2.03;;;0.50;;
47519;SDS011;33252;48.122;11.538;2024-02-26T12:19:18;1.02;;;0.30;;
47519;SDS011;33252;48.122;11.538;2024-02-26T12:21:43;2.53;;;0.82;;
47519;SDS011;33252;48.122;11.538;2024-02-26T12:24:10;2.65;;;0.40;;
47519;SDS011;33252;48.122;11.538;2024-02-26T12:26:37;0.60;;;0.30;;
47519;SDS011;33252;48.122;11.538;2024-02-26T12:29:04;1.30;;;0.40;;
47519;SDS011;33252;48.122;11.538;2024-02-26T12:31:29;1.23;;;0.30;;
47519;SDS011;33252;48.122;11.538;2024-02-26T12:33:56;2.65;;;0.30;;
47519;SDS011;33252;48.122;11.538;2024-02-26T12:36:22;0.60;;;0.20;;
47519;SDS011;33252;48.122;11.538;2024-02-26T12:38:52;0.63;;;0.30;;
47519;SDS011;33252;48.122;11.538;2024-02-26T12:41:18;1.77;;;0.30;;
47519;SDS011;33252;48.122;11.538;2024-02-26T12:43:43;1.70;;;0.40;;
47519;SDS011;33252;48.122;11.538;2024-02-26T12:46:10;0.50;;;0.32;;
47519;SDS011;33252;48.122;11.538;2024-02-26T12:48:36;2.33;;;0.43;;
47519;SDS011;33252;48.122;11.538;2024-02-26T12:51:01;1.65;;;0.45;;
47519;SDS011;33252;48.122;11.538;2024-02-26T12:53:27;1.42;;;0.50;;
47519;SDS011;33252;48.122;11.538;2024-02-26T12:55:53;1.00;;;0.50;;
47519;SDS011;33252;48.122;11.538;2024-02-26T12:58:20;1.00;;;0.32;;
47519;SDS011;33252;48.122;11.538;2024-02-26T13:00:50;0.70;;;0.40;;
47519;SDS011;33252;48.122;11.538;2024-02-26T13:03:17;1.98;;;0.77;;
47519;SDS011;33252;48.122;11.538;2024-02-26T13:05:43;1.13;;;0.35;;
47519;SDS011;33252;48.122;11.538;2024-02-26T13:08:09;0.30;;;0.30;;
47519;SDS011;33252;48.122;11.538;2024-02-26T13:10:41;1.98;;;0.55;;
47519;SDS011;33252;48.122;11.538;2024-02-26T13:13:07;1.90;;;0.75;;
47519;SDS011;33252;48.122;11.538;2024-02-26T13:15:33;0.82;;;0.50;;
47519;SDS011;33252;48.122;11.538;2024-02-26T13:17:59;2.13;;;0.38;;
47519;SDS011;33252;48.122;11.538;2024-02-26T13:20:37;1.27;;;0.38;;
47519;SDS011;33252;48.122;11.538;2024-02-26T13:23:05;1.05;;;0.30;;
47519;SDS011;33252;48.122;11.538;2024-02-26T13:25:32;1.60;;;0.65;;
47519;SDS011;33252;48.122;11.538;2024-02-26T13:28:08;2.60;;;0.60;;
47519;SDS011;33252;48.122;11.538;2024-02-26T13:30:37;1.65;;;0.60;;
47519;SDS011;33252;48.122;11.538;2024-02-26T13:33:12;1.52;;;0.50;;
47519;SDS011;33252;48.122;11.538;2024-02-26T13:35:38;1.05;;;0.52;;
47519;SDS011;33252;48.122;11.538;2024-02-26T13:38:05;2.08;;;0.60;;
47519;SDS011;33252;48.122;11.538;2024-02-26T13:40:31;1.55;;;0.47;;
47519;SDS011;33252;48.122;11.538;2024-02-26T13:42:57;2.20;;;0.52;;
47519;SDS011;33252;48.122;11.538;2024-02-26T13:45:22;3.38;;;0.90;;
47519;SDS011;33252;48.122;11.538;2024-02-26T13:47:48;2.90;;;0.93;;
47519;SDS011;33252;48.122;11.538;2024-02-26T13:50:13;1.58;;;0.50;;
47519;SDS011;33252;48.122;11.538;2024-02-26T13:52:39;2.72;;;0.70;;
47519;SDS011;33252;48.122;11.538;2024-02-26T13:55:05;2.00;;;1.08;;
47519;SDS011;33252;48.122;11.538;2024-02-26T13:57:32;2.85;;;1.15;;
47519;SDS011;33252;48.122;11.538;2024-02-26T13:59:58;1.27;;;0.55;;
47519;SDS011;33252;48.122;11.538;2024-02-26T14:02:23;2.45;;;0.57;;
47519;SDS011;33252;48.122;11.538;2024-02-26T14:04:49;0.95;;;0.45;;
47519;SDS011;33252;48.122;11.538;2024-02-26T14:07:14;2.70;;;0.73;;
47519;SDS011;33252;48.122;11.538;2024-02-26T14:09:42;1.20;;;0.43;;
47519;SDS011;33252;48.122;11.538;2024-02-26T14:12:07;0.50;;;0.40;;
47519;SDS011;33252;48.122;11.538;2024-02-26T14:14:33;2.80;;;0.40;;
47519;SDS011;33252;48.122;11.538;2024-02-26T14:17:01;0.95;;;0.38;;
47519;SDS011;33252;48.122;11.538;2024-02-26T14:19:28;0.95;;;0.50;;
47519;SDS011;33252;48.122;11.538;2024-02-26T14:21:54;1.15;;;0.35;;
47519;SDS011;33252;48.122;11.538;2024-02-26T14:24:19;1.10;;;1.00;;
47519;SDS011;33252;48.122;11.538;2024-02-26T14:26:45;0.85;;;0.40;;
47519;SDS011;33252;48.122;11.538;2024-02-26T14:29:11;1.55;;;0.63;;
47519;SDS011;33252;48.122;11.538;2024-02-26T14:31:36;1.55;;;0.55;;
47519;SDS011;33252;48.122;11.538;2024-02-26T14:34:02;1.58;;;1.05;;
47519;SDS011;33252;48.122;11.538;2024-02-26T14:36:27;1.30;;;1.05;;